Time;durP1;ratioP1;P1;durP2;ratioP2;P2;SDS_P1;SDS_P2;PMS_P1;PMS_P2;Temp;Humidity;BMP_temperature;BMP_pressure;BME280_temperature;BME280_humidity;BME280_pressure;Samples;Min_cycle;Max_cycle;Signal;HPM_P1;HPM_P2
2022/12/31 00:01:55;;;;;;;2.93;1.20;;;16.90;44.80;;;;;;4994074;28;20194;-74
2022/12/31 00:04:21;;;;;;;2.80;1.10;;;16.90;44.60;;;;;;4977341;28;20177;-74
2022/12/31 00:06:47;;;;;;;3.23;1.20;;;16.80;45.00;;;;;;4991649;28;20193;-74
2022/12/31 00:09:12;;;;;;;3.00;1.30;;;17.20;43.70;;;;;;4990780;28;20543;-71
2022/12/31 00:11:38;;;;;;;2.80;1.10;;;16.90;44.30;;;;;;4988141;28;20240;-74
2022/12/31 00:14:04;;;;;;;2.90;1.20;;;16.60;45.00;;;;;;4993565;28;20189;-74
2022/12/31 00:16:33;;;;;;;2.80;1.10;;;16.50;45.40;;;;;;4988028;28;20179;-74
2022/12/31 00:18:59;;;;;;;2.83;1.13;;;16.70;45.10;;;;;;4989482;28;20986;-74
2022/12/31 00:21:27;;;;;;;2.90;1.20;;;16.60;45.30;;;;;;4989797;28;20543;-73
2022/12/31 00:23:53;;;;;;;2.83;1.20;;;16.60;45.10;;;;;;4993837;28;20433;-74
2022/12/31 00:26:23;;;;;;;2.80;1.20;;;16.40;45.80;;;;;;4992446;28;20531;-73
2022/12/31 00:28:50;;;;;;;3.20;1.40;;;16.60;45.00;;;;;;4998645;28;21196;-74
2022/12/31 00:31:22;;;;;;;3.50;1.20;;;16.70;45.60;;;;;;4995667;28;20519;-74
2022/12/31 00:33:47;;;;;;;3.60;1.40;;;16.50;45.10;;;;;;5010344;28;20463;-74
2022/12/31 00:36:17;;;;;;;2.90;1.20;;;16.50;45.10;;;;;;4991696;28;20445;-74
2022/12/31 00:38:45;;;;;;;2.90;1.20;;;16.40;45.40;;;;;;4991375;28;20621;-74
2022/12/31 00:41:12;;;;;;;2.93;1.23;;;16.40;45.80;;;;;;4993845;28;20432;-74
2022/12/31 00:43:37;;;;;;;3.00;1.20;;;16.40;45.50;;;;;;4994187;28;20949;-74
2022/12/31 00:46:04;;;;;;;2.83;1.20;;;16.80;44.50;;;;;;4990451;28;20439;-74
2022/12/31 00:48:30;;;;;;;3.10;1.30;;;16.50;45.40;;;;;;4992797;28;20218;-72
2022/12/31 00:50:56;;;;;;;3.10;1.40;;;16.50;45.40;;;;;;4996689;28;20491;-72
2022/12/31 00:53:23;;;;;;;3.00;1.30;;;16.70;44.80;;;;;;4980734;28;20186;-74
2022/12/31 00:55:49;;;;;;;2.90;1.20;;;16.90;44.00;;;;;;4988006;28;20437;-73
2022/12/31 00:58:14;;;;;;;2.90;1.20;;;17.00;43.40;;;;;;4989485;28;20837;-74
2022/12/31 01:00:40;;;;;;;2.93;1.20;;;16.80;44.10;;;;;;4997861;28;20185;-74
2022/12/31 01:03:06;;;;;;;2.90;1.17;;;17.00;43.40;;;;;;4994124;28;20781;-74
2022/12/31 01:05:33;;;;;;;2.90;1.13;;;17.00;43.60;;;;;;4994679;28;20421;-74
2022/12/31 01:07:59;;;;;;;2.97;1.20;;;16.90;43.40;;;;;;4995451;28;20457;-74
2022/12/31 01:13:09;;;;;;;2.93;1.23;;;17.10;43.20;;;;;;4994468;28;20177;-74
2022/12/31 01:15:36;;;;;;;2.90;1.10;;;16.90;43.60;;;;;;4994451;28;20417;-73
2022/12/31 01:18:04;;;;;;;2.90;1.20;;;17.00;43.90;;;;;;4991875;28;20199;-74
2022/12/31 01:20:34;;;;;;;2.93;1.10;;;17.10;43.80;;;;;;4990800;28;20446;-74
2022/12/31 01:22:59;;;;;;;2.90;1.20;;;16.80;44.10;;;;;;4990237;28;20434;-74
2022/12/31 01:25:25;;;;;;;2.90;1.20;;;16.70;44.00;;;;;;4993554;28;20472;-73
2022/12/31 01:27:50;;;;;;;3.00;1.30;;;16.60;43.80;;;;;;4992266;28;20214;-74
2022/12/31 01:30:16;;;;;;;3.00;1.20;;;16.60;43.70;;;;;;4991872;28;20211;-75
2022/12/31 01:32:42;;;;;;;2.90;1.10;;;16.70;43.70;;;;;;4998474;28;20190;-75
2022/12/31 01:35:08;;;;;;;3.00;1.20;;;16.80;43.20;;;;;;4994802;28;20189;-73
2022/12/31 01:37:33;;;;;;;2.90;1.10;;;17.00;42.50;;;;;;4994014;28;20205;-74
2022/12/31 01:39:59;;;;;;;3.00;1.30;;;16.80;42.60;;;;;;4991147;28;20454;-75
2022/12/31 01:42:24;;;;;;;3.10;1.20;;;16.70;42.70;;;;;;4987131;28;20196;-75
2022/12/31 01:44:54;;;;;;;3.13;1.40;;;16.80;42.00;;;;;;4993567;28;20641;-75
2022/12/31 01:47:41;;;;;;;2.97;1.20;;;16.90;41.80;;;;;;4992484;28;20669;-74
2022/12/31 01:50:11;;;;;;;3.00;1.20;;;17.10;41.20;;;;;;4992074;28;20520;-74
2022/12/31 01:52:42;;;;;;;3.70;1.60;;;17.00;41.30;;;;;;4989548;28;20461;-75
2022/12/31 01:55:11;;;;;;;3.60;1.30;;;17.00;41.30;;;;;;4993862;28;20414;-71
2022/12/31 01:57:37;;;;;;;3.10;1.30;;;17.00;40.40;;;;;;4985955;28;20476;-74
2022/12/31 02:00:05;;;;;;;3.20;1.20;;;17.20;40.10;;;;;;4996861;28;20772;-75
2022/12/31 02:02:30;;;;;;;3.00;1.20;;;17.20;40.10;;;;;;4990371;28;20438;-75
2022/12/31 02:04:58;;;;;;;3.07;1.20;;;17.20;39.10;;;;;;5006793;28;20445;-73
2022/12/31 02:07:24;;;;;;;3.00;1.20;;;17.10;40.00;;;;;;4992473;28;20285;-74
2022/12/31 02:09:50;;;;;;;3.10;1.30;;;17.00;39.70;;;;;;4993236;28;20540;-75
2022/12/31 02:12:16;;;;;;;3.10;1.20;;;16.90;40.00;;;;;;4988934;28;20448;-75
2022/12/31 02:14:44;;;;;;;3.10;1.20;;;17.10;40.20;;;;;;4991486;28;20437;-75
2022/12/31 02:17:23;;;;;;;3.10;1.20;;;17.30;39.10;;;;;;4991914;28;20198;-74
2022/12/31 02:19:48;;;;;;;3.23;1.30;;;17.40;39.20;;;;;;4992984;28;20438;-74
2022/12/31 02:22:25;;;;;;;3.00;1.13;;;17.60;38.20;;;;;;4991717;28;20417;-75
2022/12/31 02:25:43;;;;;;;3.10;1.20;;;17.50;38.60;;;;;;4991026;28;20188;-75
2022/12/31 02:28:23;;;;;;;3.07;1.10;;;17.50;38.60;;;;;;4986228;28;21017;-74
2022/12/31 02:31:17;;;;;;;3.20;1.30;;;17.70;37.80;;;;;;4991567;28;20520;-74
2022/12/31 02:33:55;;;;;;;3.20;1.20;;;17.40;38.60;;;;;;4959859;28;20826;-75
2022/12/31 02:36:25;;;;;;;3.27;1.20;;;17.50;38.40;;;;;;4948952;28;20444;-73
2022/12/31 02:38:52;;;;;;;3.60;1.30;;;17.40;38.60;;;;;;4957409;28;21037;-73
2022/12/31 02:44:18;;;;;;;3.30;1.10;;;17.30;39.10;;;;;;4952410;28;20667;-74
2022/12/31 02:47:03;;;;;;;3.30;1.27;;;17.40;39.20;;;;;;4946681;28;20531;-75
2022/12/31 02:50:06;;;;;;;3.40;1.20;;;17.20;39.00;;;;;;4955153;28;20484;-75
2022/12/31 02:52:54;;;;;;;3.43;1.30;;;17.20;39.90;;;;;;4953433;28;20449;-74
2022/12/31 02:55:34;;;;;;;3.70;1.50;;;17.80;38.30;;;;;;4952572;28;20444;-74
2022/12/31 03:04:30;;;;;;;3.30;1.30;;;17.80;38.70;;;;;;4948142;28;20490;-74
2022/12/31 03:06:51;;;;;;;3.43;1.33;;;17.70;38.70;;;;;;4964991;28;20441;-73
2022/12/31 03:09:16;;;;;;;3.20;1.10;;;17.60;39.40;;;;;;4970862;28;20507;-75
2022/12/31 03:14:26;;;;;;;3.27;1.17;;;18.00;38.20;;;;;;4988578;28;20210;-75
2022/12/31 03:16:51;;;;;;;3.30;1.20;;;17.70;39.10;;;;;;4984350;28;20849;-73
2022/12/31 03:27:29;;;;;;;3.33;1.20;;;17.90;39.60;;;;;;4991636;28;20848;-75
2022/12/31 03:29:54;;;;;;;3.47;1.40;;;18.10;39.20;;;;;;4990591;28;20455;-75
2022/12/31 03:32:20;;;;;;;3.30;1.20;;;18.10;39.10;;;;;;4989408;28;20278;-73
2022/12/31 03:34:46;;;;;;;3.30;1.20;;;17.80;39.60;;;;;;4979996;28;20178;-75
2022/12/31 03:37:11;;;;;;;3.30;1.20;;;18.10;39.00;;;;;;5002507;28;20194;-74
2022/12/31 03:39:37;;;;;;;3.30;1.20;;;18.10;39.00;;;;;;4996303;28;20633;-74
2022/12/31 03:42:03;;;;;;;3.33;1.30;;;17.70;40.00;;;;;;4994792;28;20269;-72
2022/12/31 03:44:28;;;;;;;3.40;1.30;;;18.00;39.80;;;;;;4995120;28;20275;-71
2022/12/31 03:46:54;;;;;;;3.33;1.20;;;18.00;39.20;;;;;;4996754;28;20437;-74
2022/12/31 03:49:19;;;;;;;3.30;1.30;;;17.90;39.70;;;;;;4999197;28;20221;-74
2022/12/31 03:51:45;;;;;;;3.40;1.37;;;17.90;39.70;;;;;;4995138;28;20561;-75
2022/12/31 03:54:10;;;;;;;3.43;1.40;;;18.10;40.10;;;;;;4995724;28;20179;-73
2022/12/31 03:56:36;;;;;;;3.30;1.20;;;18.10;39.90;;;;;;4995439;28;20179;-74
2022/12/31 03:59:02;;;;;;;3.27;1.20;;;18.10;39.90;;;;;;4997680;28;20192;-74
2022/12/31 04:01:27;;;;;;;3.47;1.40;;;18.00;39.80;;;;;;4994361;28;20619;-74
2022/12/31 04:03:53;;;;;;;3.30;1.20;;;17.80;40.60;;;;;;4990891;28;20182;-73
2022/12/31 04:06:18;;;;;;;3.40;1.20;;;17.90;40.00;;;;;;4990919;28;20283;-74
2022/12/31 04:08:44;;;;;;;3.40;1.27;;;16.30;39.50;;;;;;4976682;28;20722;-74
2022/12/31 04:11:09;;;;;;;3.50;1.20;;;17.90;41.10;;;;;;4993803;28;20207;-74
2022/12/31 04:13:35;;;;;;;3.43;1.27;;;17.80;41.30;;;;;;5042842;22;20244;-74
2022/12/31 04:16:01;;;;;;;3.43;1.20;;;17.70;41.70;;;;;;5033328;28;20226;-74
2022/12/31 04:18:26;;;;;;;3.30;1.20;;;17.60;42.00;;;;;;5028080;28;20179;-74
2022/12/31 04:20:52;;;;;;;3.47;1.20;;;17.40;42.90;;;;;;5034487;28;20304;-74
2022/12/31 04:23:17;;;;;;;3.50;1.20;;;17.90;41.90;;;;;;5031119;28;20209;-74
2022/12/31 04:25:43;;;;;;;3.57;1.30;;;17.80;42.30;;;;;;5021476;28;20686;-76
2022/12/31 04:28:08;;;;;;;3.37;1.17;;;17.80;42.50;;;;;;5025279;28;20239;-74
2022/12/31 04:30:35;;;;;;;3.30;1.20;;;17.80;42.80;;;;;;5026987;28;20208;-74
2022/12/31 04:33:01;;;;;;;3.40;1.20;;;17.50;44.00;;;;;;5037707;28;20438;-75
2022/12/31 04:35:26;;;;;;;3.30;1.27;;;17.70;44.10;;;;;;5029643;28;20632;-74
2022/12/31 04:37:52;;;;;;;3.50;1.40;;;17.80;43.60;;;;;;5023918;28;20627;-74
2022/12/31 04:40:17;;;;;;;3.30;1.13;;;17.60;44.40;;;;;;5024692;28;20197;-74
2022/12/31 04:42:43;;;;;;;3.20;1.20;;;17.60;45.70;;;;;;5032006;28;20203;-74
2022/12/31 04:45:09;;;;;;;3.30;1.20;;;17.30;47.50;;;;;;5033040;28;20190;-74
2022/12/31 04:47:34;;;;;;;3.30;1.20;;;17.50;47.10;;;;;;5033758;28;20192;-74
2022/12/31 04:50:00;;;;;;;3.30;1.30;;;17.10;50.20;;;;;;5030495;28;20255;-74
2022/12/31 04:52:25;;;;;;;3.10;1.30;;;17.00;51.10;;;;;;5029572;28;20199;-75
2022/12/31 04:54:51;;;;;;;3.10;1.20;;;17.10;50.40;;;;;;5027834;28;20190;-75
2022/12/31 04:57:17;;;;;;;3.07;1.20;;;17.40;49.80;;;;;;5033803;28;20210;-75
2022/12/31 04:59:42;;;;;;;3.00;1.10;;;17.70;47.50;;;;;;5031300;28;20244;-74
2022/12/31 05:02:08;;;;;;;3.10;1.23;;;17.70;47.00;;;;;;5030917;28;20202;-75
2022/12/31 05:04:34;;;;;;;3.00;1.20;;;17.50;48.00;;;;;;5033084;28;20184;-75
2022/12/31 05:06:59;;;;;;;3.00;1.20;;;17.90;46.40;;;;;;5032876;28;20192;-75
2022/12/31 05:09:27;;;;;;;3.00;1.13;;;18.00;46.20;;;;;;5033180;28;20177;-74
2022/12/31 05:11:52;;;;;;;3.00;1.20;;;18.20;44.70;;;;;;5028800;28;20199;-75
2022/12/31 05:14:18;;;;;;;3.00;1.10;;;18.40;43.60;;;;;;5031855;28;20446;-75
2022/12/31 05:16:43;;;;;;;3.03;1.20;;;18.40;43.00;;;;;;5032041;28;20590;-75
2022/12/31 05:19:09;;;;;;;3.00;1.20;;;18.40;43.40;;;;;;5033311;28;20182;-74
2022/12/31 05:21:35;;;;;;;3.10;1.30;;;18.30;42.50;;;;;;5030616;28;20672;-74
2022/12/31 05:24:00;;;;;;;3.10;1.20;;;18.40;42.50;;;;;;5032818;28;20276;-75
2022/12/31 05:26:26;;;;;;;3.20;1.20;;;18.50;41.40;;;;;;5031967;28;20182;-73
2022/12/31 05:28:51;;;;;;;3.20;1.30;;;18.40;41.70;;;;;;5025076;28;20180;-75
2022/12/31 05:31:17;;;;;;;3.10;1.20;;;18.20;41.90;;;;;;5032884;28;20200;-74
2022/12/31 05:33:43;;;;;;;3.27;1.30;;;18.20;41.50;;;;;;5025955;28;20205;-75
2022/12/31 05:36:08;;;;;;;3.20;1.20;;;18.50;41.30;;;;;;5031244;28;20184;-75
2022/12/31 05:38:35;;;;;;;3.30;1.20;;;18.80;40.30;;;;;;5031287;28;20696;-75
2022/12/31 05:41:03;;;;;;;3.20;1.20;;;19.00;39.20;;;;;;5032967;28;20174;-75
2022/12/31 05:43:29;;;;;;;3.20;1.13;;;18.90;39.10;;;;;;5026993;28;20519;-75
2022/12/31 05:45:55;;;;;;;3.20;1.10;;;19.10;38.20;;;;;;5031896;28;20805;-75
2022/12/31 05:48:20;;;;;;;3.27;1.20;;;19.20;38.30;;;;;;5029202;28;20521;-76
2022/12/31 05:50:47;;;;;;;3.30;1.20;;;19.10;38.80;;;;;;5028761;28;20191;-75
2022/12/31 05:53:12;;;;;;;3.30;1.30;;;18.50;40.20;;;;;;5031827;28;20239;-74
2022/12/31 05:55:38;;;;;;;3.17;1.10;;;18.60;40.30;;;;;;5032778;28;20464;-75
2022/12/31 05:58:03;;;;;;;3.57;1.37;;;18.70;40.40;;;;;;5032852;28;20181;-76
2022/12/31 06:00:29;;;;;;;3.20;1.20;;;18.40;40.60;;;;;;5024785;28;20187;-75
2022/12/31 06:02:54;;;;;;;3.20;1.20;;;18.20;41.00;;;;;;5022602;28;20203;-75
2022/12/31 06:05:20;;;;;;;3.17;1.27;;;17.80;42.10;;;;;;5029605;28;20647;-75
2022/12/31 06:07:46;;;;;;;3.23;1.30;;;17.40;44.10;;;;;;5028279;28;20653;-75
2022/12/31 06:10:11;;;;;;;3.17;1.30;;;17.20;44.90;;;;;;5029840;28;20244;-74
2022/12/31 06:12:37;;;;;;;3.10;1.20;;;17.30;44.70;;;;;;5029676;28;20211;-74
2022/12/31 06:15:03;;;;;;;3.00;1.20;;;16.80;45.90;;;;;;5031233;28;20615;-73
2022/12/31 06:17:31;;;;;;;3.10;1.30;;;16.80;46.50;;;;;;5032267;28;20214;-74
2022/12/31 06:19:57;;;;;;;3.03;1.20;;;17.20;45.20;;;;;;5030793;28;20431;-74
2022/12/31 06:22:22;;;;;;;3.00;1.20;;;17.10;45.00;;;;;;5021956;28;20467;-75
2022/12/31 06:24:48;;;;;;;3.00;1.20;;;17.00;45.50;;;;;;5030785;28;20428;-75
2022/12/31 06:27:13;;;;;;;3.03;1.20;;;16.80;46.50;;;;;;5030569;28;20178;-75
2022/12/31 06:29:39;;;;;;;3.10;1.30;;;16.90;46.00;;;;;;5022825;28;20658;-74
2022/12/31 06:32:05;;;;;;;3.10;1.30;;;17.30;44.50;;;;;;5030033;28;20180;-74
2022/12/31 06:34:31;;;;;;;3.00;1.20;;;17.20;44.90;;;;;;5024690;28;20184;-73
2022/12/31 06:36:57;;;;;;;2.93;1.10;;;16.80;45.90;;;;;;5027891;28;20190;-74
2022/12/31 06:39:22;;;;;;;3.00;1.20;;;16.80;46.20;;;;;;5031033;28;20185;-74
2022/12/31 06:41:48;;;;;;;3.10;1.20;;;17.10;45.20;;;;;;5031660;28;20782;-75
2022/12/31 06:44:14;;;;;;;3.00;1.30;;;17.10;45.20;;;;;;5028383;28;20641;-75
2022/12/31 06:46:39;;;;;;;3.00;1.20;;;17.20;44.70;;;;;;5028636;28;20196;-74
2022/12/31 06:49:05;;;;;;;3.00;1.13;;;17.30;44.10;;;;;;5028915;28;20687;-75
2022/12/31 06:51:30;;;;;;;3.00;1.20;;;17.40;43.90;;;;;;5029810;28;20231;-74
2022/12/31 06:53:56;;;;;;;2.90;1.10;;;17.30;43.70;;;;;;5031599;28;20561;-74
2022/12/31 06:56:27;;;;;;;2.90;1.00;;;17.20;44.30;;;;;;5031462;28;20215;-74
2022/12/31 06:58:52;;;;;;;3.10;1.30;;;17.20;45.20;;;;;;5024966;28;20181;-75
2022/12/31 07:01:32;;;;;;;3.00;1.30;;;17.50;43.10;;;;;;5026991;28;20508;-75
2022/12/31 07:04:26;;;;;;;2.90;1.20;;;17.50;43.50;;;;;;5030614;28;20562;-74
2022/12/31 07:07:16;;;;;;;2.93;1.10;;;17.30;43.70;;;;;;4991914;28;20972;-75
2022/12/31 07:10:09;;;;;;;3.00;1.30;;;17.20;44.30;;;;;;5030102;28;20520;-74
2022/12/31 07:13:01;;;;;;;3.00;1.20;;;17.40;43.50;;;;;;5023306;28;20557;-74
2022/12/31 07:15:35;;;;;;;2.97;1.20;;;17.30;43.60;;;;;;5026422;28;20439;-71
2022/12/31 07:18:09;;;;;;;3.03;1.20;;;17.20;43.80;;;;;;5030337;28;20917;-74
2022/12/31 07:20:34;;;;;;;3.10;1.30;;;16.80;44.90;;;;;;5021461;28;20785;-74
2022/12/31 07:23:00;;;;;;;3.00;1.30;;;17.00;44.50;;;;;;5027568;28;20491;-73
2022/12/31 07:25:26;;;;;;;3.03;1.30;;;17.50;42.80;;;;;;5030463;28;20198;-73
2022/12/31 07:28:03;;;;;;;3.00;1.20;;;17.40;42.40;;;;;;5029590;28;20999;-75
2022/12/31 07:31:06;;;;;;;2.90;1.13;;;17.70;42.00;;;;;;5026998;28;20464;-74
2022/12/31 07:33:50;;;;;;;3.10;1.20;;;17.60;42.20;;;;;;4968232;28;20473;-74
2022/12/31 07:36:25;;;;;;;3.00;1.20;;;17.70;41.80;;;;;;4950757;28;20446;-74
2022/12/31 07:39:11;;;;;;;3.00;1.10;;;17.90;40.90;;;;;;4968588;28;20441;-75
2022/12/31 07:41:55;;;;;;;2.97;1.10;;;18.20;40.00;;;;;;4969746;28;20433;-75
2022/12/31 07:44:51;;;;;;;3.10;1.30;;;18.10;40.30;;;;;;4967114;28;20460;-74
2022/12/31 07:47:23;;;;;;;3.00;1.23;;;18.20;39.90;;;;;;4966813;28;20802;-73
2022/12/31 07:49:49;;;;;;;2.90;1.17;;;18.10;40.10;;;;;;4965090;28;20547;-75
2022/12/31 07:52:15;;;;;;;2.97;1.17;;;17.90;40.20;;;;;;4968347;28;21184;-76
2022/12/31 07:54:40;;;;;;;3.00;1.20;;;17.90;39.90;;;;;;4970830;28;20424;-77
2022/12/31 07:57:06;;;;;;;3.00;1.13;;;18.20;40.00;;;;;;4968296;28;20968;-72
2022/12/31 07:59:56;;;;;;;3.00;1.20;;;18.20;39.90;;;;;;4966520;28;20203;-76
2022/12/31 08:03:15;;;;;;;3.07;1.20;;;18.20;40.00;;;;;;4968922;28;20583;-74
2022/12/31 08:05:45;;;;;;;3.00;1.10;;;18.20;40.00;;;;;;4949653;28;20451;-73
2022/12/31 08:08:19;;;;;;;3.17;1.30;;;18.50;38.70;;;;;;5011930;28;20436;-69
2022/12/31 08:11:09;;;;;;;3.10;1.20;;;18.50;39.40;;;;;;5028039;28;20461;-72
2022/12/31 08:13:35;;;;;;;3.10;1.20;;;18.60;38.50;;;;;;5021467;28;20470;-74
2022/12/31 08:16:01;;;;;;;3.23;1.20;;;18.90;37.70;;;;;;5029237;28;20477;-73
2022/12/31 08:18:27;;;;;;;3.20;1.20;;;19.10;36.90;;;;;;5027305;28;20503;-77
2022/12/31 08:21:09;;;;;;;3.37;1.33;;;19.10;36.60;;;;;;5027384;28;20195;-73
2022/12/31 08:23:42;;;;;;;3.20;1.20;;;19.30;36.20;;;;;;5031515;28;20210;-73
2022/12/31 08:26:17;;;;;;;3.40;1.27;;;19.20;36.60;;;;;;5027299;28;20444;-74
2022/12/31 08:29:01;;;;;;;3.90;1.60;;;19.30;36.00;;;;;;5029538;28;20418;-75
2022/12/31 08:31:44;;;;;;;3.53;1.30;;;19.20;35.70;;;;;;5027705;28;20471;-75
2022/12/31 08:34:09;;;;;;;3.50;1.13;;;19.20;35.90;;;;;;5034082;28;20448;-71
2022/12/31 08:36:50;;;;;;;3.60;1.30;;;19.40;35.10;;;;;;5027902;28;20546;-72
2022/12/31 08:39:42;;;;;;;4.13;1.60;;;19.60;34.60;;;;;;5048547;28;20612;-73
2022/12/31 08:42:35;;;;;;;3.60;1.27;;;19.40;34.70;;;;;;5032077;28;20462;-72
2022/12/31 08:45:20;;;;;;;3.67;1.27;;;19.40;34.60;;;;;;5030567;28;20502;-76
2022/12/31 08:47:59;;;;;;;3.70;1.20;;;19.30;34.60;;;;;;5021332;28;20498;-74
2022/12/31 08:50:25;;;;;;;3.80;1.30;;;19.40;34.90;;;;;;5034825;28;20466;-75
2022/12/31 08:52:51;;;;;;;3.70;1.10;;;19.70;34.10;;;;;;5034143;28;20484;-74
2022/12/31 08:55:18;;;;;;;3.80;1.10;;;19.70;34.90;;;;;;5030345;28;20436;-72
2022/12/31 08:58:20;;;;;;;3.87;1.30;;;19.80;33.80;;;;;;5030920;28;20431;-72
2022/12/31 09:00:49;;;;;;;3.97;1.30;;;19.60;34.20;;;;;;5033184;28;20434;-72
2022/12/31 09:03:44;;;;;;;4.00;1.20;;;20.00;32.70;;;;;;5028375;28;20475;-75
2022/12/31 09:06:26;;;;;;;3.90;1.20;;;20.00;33.10;;;;;;4991033;28;20442;-73
2022/12/31 09:08:54;;;;;;;3.90;1.20;;;20.40;32.60;;;;;;4984405;28;20541;-75
2022/12/31 09:11:29;;;;;;;4.00;1.30;;;20.30;32.50;;;;;;4995578;28;20474;-71
2022/12/31 09:14:13;;;;;;;4.10;1.37;;;20.30;32.10;;;;;;4987140;28;20607;-75
2022/12/31 09:16:53;;;;;;;4.00;1.20;;;20.10;33.00;;;;;;4998205;28;20439;-75
2022/12/31 09:19:19;;;;;;;4.00;1.20;;;20.10;32.60;;;;;;4989849;28;21104;-74
2022/12/31 09:21:45;;;;;;;4.00;1.20;;;19.70;33.30;;;;;;4989707;28;20437;-74
2022/12/31 09:24:14;;;;;;;4.10;1.30;;;19.70;33.00;;;;;;4974514;28;20252;-76
2022/12/31 09:26:50;;;;;;;3.97;1.10;;;19.70;33.00;;;;;;4994759;28;20441;-74
2022/12/31 09:29:22;;;;;;;4.00;1.20;;;20.00;33.20;;;;;;4996630;28;20448;-75
2022/12/31 09:31:54;;;;;;;4.13;1.23;;;19.60;33.20;;;;;;4980856;28;20836;-74
2022/12/31 09:34:32;;;;;;;4.20;1.30;;;19.30;33.80;;;;;;4990211;28;20536;-74
2022/12/31 09:37:03;;;;;;;4.20;1.30;;;19.40;33.90;;;;;;4968115;28;20438;-75
2022/12/31 09:39:39;;;;;;;4.60;1.40;;;19.70;33.00;;;;;;4989703;28;20449;-74
2022/12/31 09:42:45;;;;;;;4.23;1.30;;;19.50;33.60;;;;;;5004365;28;20527;-73
2022/12/31 09:45:39;;;;;;;4.17;1.30;;;19.70;33.10;;;;;;5025765;28;20436;-74
2022/12/31 09:48:14;;;;;;;4.10;1.27;;;19.90;32.40;;;;;;5023249;28;20571;-72
2022/12/31 09:51:12;;;;;;;4.20;1.30;;;19.70;33.10;;;;;;5025588;28;20465;-73
2022/12/31 09:54:12;;;;;;;5.00;1.60;;;19.90;32.80;;;;;;5033453;28;21011;-74
2022/12/31 09:56:47;;;;;;;4.10;1.20;;;20.20;31.70;;;;;;5034341;28;20908;-71
2022/12/31 09:59:35;;;;;;;4.20;1.27;;;20.40;31.40;;;;;;5033805;28;20393;-74
2022/12/31 10:02:10;;;;;;;4.63;1.40;;;20.20;31.60;;;;;;5015700;28;20444;-74
2022/12/31 10:04:55;;;;;;;4.20;1.27;;;20.20;31.90;;;;;;5023865;28;20520;-74
2022/12/31 10:07:40;;;;;;;4.10;1.30;;;20.20;31.40;;;;;;5031764;28;20419;-74
2022/12/31 10:10:46;;;;;;;4.20;1.30;;;20.20;31.90;;;;;;5031435;28;20431;-74
2022/12/31 10:13:28;;;;;;;4.10;1.20;;;20.20;31.50;;;;;;5012439;28;20472;-75
2022/12/31 10:16:38;;;;;;;4.17;1.27;;;20.10;31.70;;;;;;5023094;28;20450;-75
2022/12/31 10:19:26;;;;;;;4.07;1.20;;;20.10;32.50;;;;;;4992290;28;20542;-75
2022/12/31 10:21:57;;;;;;;4.13;1.20;;;20.10;31.90;;;;;;5009318;28;20423;-75
2022/12/31 10:24:34;;;;;;;4.13;1.27;;;20.10;31.30;;;;;;5010771;28;20411;-74
2022/12/31 10:27:13;;;;;;;4.20;1.40;;;20.30;31.00;;;;;;5042492;22;20545;-72
2022/12/31 10:29:46;;;;;;;4.30;1.30;;;20.00;31.00;;;;;;5012011;28;20411;-72
2022/12/31 10:32:17;;;;;;;4.40;1.50;;;19.70;32.20;;;;;;5011893;28;20543;-72
2022/12/31 10:35:00;;;;;;;4.20;1.20;;;19.70;32.10;;;;;;5012666;28;20787;-71
2022/12/31 10:37:39;;;;;;;4.23;1.30;;;19.80;31.80;;;;;;5031513;28;20495;-72
2022/12/31 10:40:08;;;;;;;4.20;1.30;;;20.00;31.60;;;;;;5030837;28;20506;-72
2022/12/31 10:42:40;;;;;;;4.20;1.30;;;20.40;31.20;;;;;;5020854;28;20484;-72
2022/12/31 10:45:43;;;;;;;4.20;1.30;;;20.40;30.70;;;;;;5025866;28;20435;-72
2022/12/31 10:48:33;;;;;;;4.20;1.40;;;20.30;30.90;;;;;;5025475;28;20508;-72
2022/12/31 10:51:25;;;;;;;4.10;1.20;;;20.30;30.60;;;;;;5030827;28;21226;-73
2022/12/31 10:54:16;;;;;;;4.10;1.20;;;20.40;30.40;;;;;;5018756;28;20431;-72
2022/12/31 10:57:19;;;;;;;4.10;1.20;;;20.70;29.90;;;;;;5034282;28;20476;-71
2022/12/31 11:00:11;;;;;;;4.20;1.30;;;20.70;29.80;;;;;;5026111;28;20405;-72
2022/12/31 11:03:11;;;;;;;4.20;1.30;;;21.00;29.40;;;;;;5021847;28;20430;-73
2022/12/31 11:05:45;;;;;;;4.17;1.20;;;21.20;29.50;;;;;;5024568;28;20451;-73
2022/12/31 11:08:22;;;;;;;4.07;1.30;;;21.10;29.50;;;;;;5019358;28;20454;-73
2022/12/31 11:11:31;;;;;;;4.07;1.20;;;20.50;29.70;;;;;;5025469;28;20460;-73
2022/12/31 11:14:19;;;;;;;4.23;1.40;;;20.40;30.20;;;;;;5012313;28;20944;-72
2022/12/31 11:16:54;;;;;;;4.20;1.30;;;20.70;29.90;;;;;;5020400;28;20512;-74
2022/12/31 11:19:43;;;;;;;4.07;1.33;;;21.10;29.00;;;;;;5022235;28;20495;-73
2022/12/31 11:22:08;;;;;;;3.97;1.30;;;21.30;29.00;;;;;;5029880;28;20423;-76
2022/12/31 11:25:04;;;;;;;4.73;1.60;;;21.50;28.50;;;;;;5032027;28;20928;-77
2022/12/31 11:27:38;;;;;;;3.90;1.30;;;21.70;28.10;;;;;;5030371;28;20187;-78
2022/12/31 11:30:12;;;;;;;3.90;1.30;;;21.70;27.50;;;;;;5030404;28;20438;-75
2022/12/31 11:32:41;;;;;;;4.27;1.63;;;21.50;28.20;;;;;;5023732;28;20490;-74
2022/12/31 11:35:35;;;;;;;3.77;1.20;;;21.90;27.80;;;;;;5030953;28;20967;-73
2022/12/31 11:38:18;;;;;;;3.73;1.23;;;21.90;27.60;;;;;;5012890;28;20430;-73
2022/12/31 11:41:08;;;;;;;3.70;1.30;;;22.20;27.50;;;;;;5013050;28;20517;-72
2022/12/31 11:43:59;;;;;;;3.40;1.23;;;22.50;27.40;;;;;;5021410;28;20997;-73
2022/12/31 11:46:45;;;;;;;3.27;1.10;;;22.40;27.00;;;;;;5030752;28;20428;-74
2022/12/31 11:49:39;;;;;;;3.30;1.20;;;22.60;26.30;;;;;;5025430;28;20439;-74
2022/12/31 11:52:32;;;;;;;3.20;1.20;;;23.10;25.80;;;;;;5027603;28;20464;-74
2022/12/31 11:55:22;;;;;;;3.20;1.27;;;23.20;25.40;;;;;;5027274;28;20405;-73
2022/12/31 11:57:49;;;;;;;3.10;1.20;;;23.20;25.80;;;;;;5026818;28;20474;-73
2022/12/31 12:00:24;;;;;;;3.10;1.40;;;22.70;25.90;;;;;;5027347;28;20456;-73
2022/12/31 12:02:51;;;;;;;3.00;1.27;;;22.90;27.10;;;;;;5030994;28;20429;-74
2022/12/31 12:05:21;;;;;;;3.10;1.40;;;22.90;26.00;;;;;;5034470;28;20429;-72
2022/12/31 12:07:47;;;;;;;2.97;1.30;;;22.80;26.90;;;;;;5025901;28;20961;-72
2022/12/31 12:10:31;;;;;;;2.83;1.30;;;22.70;26.30;;;;;;5028403;28;20470;-74
2022/12/31 12:12:57;;;;;;;2.80;1.20;;;22.80;26.20;;;;;;5034002;28;20516;-71
2022/12/31 12:15:30;;;;;;;2.80;1.30;;;23.80;24.90;;;;;;5023703;28;20442;-72
2022/12/31 12:18:05;;;;;;;2.90;1.30;;;23.60;24.70;;;;;;5030312;28;20438;-75
2022/12/31 12:20:36;;;;;;;2.80;1.20;;;23.00;25.20;;;;;;5025497;28;20445;-75
2022/12/31 12:23:14;;;;;;;3.63;1.43;;;23.00;25.20;;;;;;5023652;28;20465;-75
2022/12/31 12:25:42;;;;;;;2.80;1.23;;;23.80;24.40;;;;;;5032063;28;20465;-75
2022/12/31 12:28:23;;;;;;;2.90;1.30;;;23.60;24.20;;;;;;5034521;28;20464;-76
2022/12/31 12:30:55;;;;;;;2.80;1.20;;;23.70;24.20;;;;;;5037159;28;20534;-74
2022/12/31 12:33:20;;;;;;;2.80;1.23;;;23.70;24.30;;;;;;5027109;28;20436;-75
2022/12/31 12:35:46;;;;;;;2.80;1.30;;;23.70;24.10;;;;;;5027776;28;20458;-75
2022/12/31 12:38:21;;;;;;;2.70;1.20;;;23.30;24.60;;;;;;5031143;28;20189;-73
2022/12/31 12:40:59;;;;;;;2.70;1.20;;;22.90;24.70;;;;;;5027692;28;20467;-72
2022/12/31 12:43:28;;;;;;;2.60;1.30;;;22.40;25.70;;;;;;5030138;28;20426;-72
2022/12/31 12:45:59;;;;;;;2.80;1.20;;;22.30;25.60;;;;;;5031690;28;21239;-72
2022/12/31 12:48:38;;;;;;;2.70;1.20;;;22.80;25.40;;;;;;5024538;28;20482;-72
2022/12/31 12:51:23;;;;;;;2.70;1.30;;;22.70;25.80;;;;;;5029099;28;20569;-71
2022/12/31 12:53:52;;;;;;;2.70;1.20;;;23.00;24.90;;;;;;5029406;28;20425;-72
2022/12/31 12:56:46;;;;;;;2.70;1.10;;;23.20;24.40;;;;;;5036432;28;20427;-72
2022/12/31 12:59:16;;;;;;;2.70;1.20;;;23.60;24.40;;;;;;5023317;28;20439;-72
2022/12/31 13:01:45;;;;;;;2.70;1.20;;;23.40;24.10;;;;;;5032692;28;20556;-71
2022/12/31 13:04:19;;;;;;;2.70;1.20;;;23.70;23.90;;;;;;5029787;28;20481;-72
2022/12/31 13:07:04;;;;;;;2.80;1.20;;;23.10;24.40;;;;;;5029331;28;20433;-71
2022/12/31 13:09:52;;;;;;;2.90;1.37;;;22.90;25.10;;;;;;5027145;28;20407;-71
2022/12/31 13:12:27;;;;;;;2.80;1.30;;;22.90;24.90;;;;;;5031326;28;20976;-71
2022/12/31 13:14:58;;;;;;;2.90;1.30;;;22.80;24.70;;;;;;5031100;28;20433;-72
2022/12/31 13:17:38;;;;;;;3.30;1.40;;;22.90;24.60;;;;;;5032885;28;20808;-72
2022/12/31 13:20:24;;;;;;;2.87;1.20;;;22.80;24.70;;;;;;5033819;28;20390;-71
2022/12/31 13:23:03;;;;;;;2.87;1.23;;;23.30;24.10;;;;;;5026070;28;20473;-72
2022/12/31 13:25:54;;;;;;;2.90;1.27;;;23.40;23.80;;;;;;5023384;28;20464;-72
2022/12/31 13:28:22;;;;;;;2.80;1.20;;;23.50;24.20;;;;;;5033562;28;20408;-71
2022/12/31 13:30:53;;;;;;;3.00;1.40;;;23.50;23.50;;;;;;5033586;28;20456;-71
2022/12/31 13:33:23;;;;;;;2.90;1.30;;;23.40;23.70;;;;;;5031534;28;20431;-71
2022/12/31 13:35:56;;;;;;;2.90;1.30;;;23.40;23.60;;;;;;5024685;28;20900;-71
2022/12/31 13:38:37;;;;;;;3.00;1.20;;;23.50;23.50;;;;;;5033259;28;20415;-71
2022/12/31 13:41:21;;;;;;;2.80;1.20;;;23.20;24.00;;;;;;5023907;28;20500;-71
2022/12/31 13:43:53;;;;;;;2.80;1.13;;;22.60;25.60;;;;;;5033251;28;20834;-71